createdAt,value
2022-08-28T00:00:00.867Z,0
2022-08-28T00:05:01.063Z,0
2022-08-28T00:10:00.986Z,0
2022-08-28T00:15:00.902Z,0
2022-08-28T00:20:00.960Z,0
2022-08-28T00:25:00.918Z,0
2022-08-28T00:30:01.079Z,0
2022-08-28T00:35:00.870Z,0
2022-08-28T00:40:01.009Z,0
2022-08-28T00:45:00.946Z,0
2022-08-28T00:50:00.942Z,0
2022-08-28T00:55:01.124Z,0
2022-08-28T01:00:00.930Z,0
2022-08-28T01:05:01.013Z,0
2022-08-28T01:10:00.924Z,0
2022-08-28T01:15:00.982Z,0
2022-08-28T01:20:01.152Z,0
2022-08-28T01:25:00.947Z,0
2022-08-28T01:30:01.088Z,0
2022-08-28T01:35:00.962Z,0
2022-08-28T01:40:01.015Z,0
2022-08-28T01:45:01.007Z,0
2022-08-28T01:50:01.024Z,0
2022-08-28T01:55:01.189Z,0
2022-08-28T02:00:00.957Z,0
2022-08-28T02:05:00.978Z,0
2022-08-28T02:10:01.034Z,0
2022-08-28T02:15:01.023Z,0
2022-08-28T02:20:01.231Z,0
2022-08-28T02:25:00.991Z,0
2022-08-28T02:30:01.027Z,0
2022-08-28T02:35:00.983Z,0
2022-08-28T02:40:01.099Z,0
2022-08-28T02:45:01.237Z,0
2022-08-28T02:50:01.039Z,0
2022-08-28T02:55:01.013Z,0
2022-08-28T03:00:01.125Z,0
2022-08-28T03:05:01.058Z,0
2022-08-28T03:10:01.202Z,0
2022-08-28T03:15:01.147Z,0
2022-08-28T03:20:01.103Z,0
2022-08-28T03:25:01.028Z,0
2022-08-28T03:30:01.039Z,0
2022-08-28T03:35:01.435Z,0
2022-08-28T03:40:01.141Z,0
2022-08-28T03:45:01.108Z,0
2022-08-28T03:50:01.348Z,0
2022-08-28T03:55:01.070Z,0
2022-08-28T04:00:01.125Z,0
2022-08-28T04:05:01.067Z,0
2022-08-28T04:10:01.072Z,0
2022-08-28T04:15:01.295Z,0
2022-08-28T04:20:01.200Z,0
2022-08-28T04:25:01.131Z,0.3472063492063492
2022-08-28T04:30:01.101Z,0.48626455026455023
2022-08-28T04:35:01.118Z,0.5547936507936508
2022-08-28T04:40:01.296Z,0.9606878306878307
2022-08-28T04:45:01.151Z,1.2861164021164022
2022-08-28T04:50:01.108Z,1.5291957671957674
2022-08-28T04:55:01.124Z,1.6181269841269843
2022-08-28T05:00:01.228Z,1.5679576719576718
2022-08-28T05:05:01.322Z,1.7363492063492063
2022-08-28T05:10:01.150Z,1.9928677248677247
2022-08-28T05:15:01.214Z,2.1164550264550264
2022-08-28T05:20:01.289Z,2.369227513227513
2022-08-28T05:25:01.151Z,3.128306878306878
2022-08-28T05:30:02.239Z,3.514084656084656
2022-08-28T05:35:01.202Z,3.7864656084656083
2022-08-28T05:40:01.187Z,3.826349206349207
2022-08-28T05:45:01.322Z,4.444465608465609
2022-08-28T05:50:01.238Z,5.4791428571428575
2022-08-28T05:55:01.340Z,7.264867724867724
2022-08-28T06:00:01.243Z,9.061555555555556
2022-08-28T06:05:01.199Z,9.871640211640212
2022-08-28T06:10:01.203Z,6.520465608465608
2022-08-28T06:15:01.172Z,7.745820105820106
2022-08-28T06:20:01.405Z,8.389566137566137
2022-08-28T06:25:01.203Z,7.5741375661375665
2022-08-28T06:30:01.223Z,13.53479365079365
2022-08-28T06:35:01.222Z,16.748137566137565
2022-08-28T06:40:01.267Z,8.858148148148148
2022-08-28T06:45:01.445Z,10.371343915343916
2022-08-28T06:50:01.250Z,8.097968253968254
2022-08-28T06:55:01.261Z,8.676338624338625
2022-08-28T07:00:01.230Z,8.085343915343916
2022-08-28T07:05:01.233Z,7.750190476190477
2022-08-28T07:10:01.476Z,10.61847619047619
2022-08-28T07:15:01.306Z,13.182497354497356
2022-08-28T07:20:01.369Z,9.637449735449735
2022-08-28T07:25:01.273Z,11.836497354497354
2022-08-28T07:30:01.266Z,5.958529100529101
2022-08-28T07:35:01.546Z,16.183248677248677
2022-08-28T07:40:01.317Z,13.796497354497356
2022-08-28T07:45:01.328Z,18.231428571428573
2022-08-28T07:50:01.267Z,9.102328042328043
2022-08-28T07:55:01.279Z,10.68352380952381
2022-08-28T08:00:01.479Z,11.400613756613756
2022-08-28T08:05:01.407Z,20.611608465608466
2022-08-28T08:10:01.299Z,15.781619047619047
2022-08-28T08:15:01.338Z,39.96741798941799
2022-08-28T08:20:01.400Z,43.349957671957675
2022-08-28T08:25:01.598Z,32.51435978835978
2022-08-28T08:30:01.307Z,17.507693121693123
2022-08-28T08:35:01.317Z,23.63642328042328
2022-08-28T08:40:01.460Z,41.87633862433863
2022-08-28T08:45:01.349Z,23.722391534391534
2022-08-28T08:50:01.532Z,32.50715343915344
2022-08-28T08:55:01.323Z,30.523195767195766
2022-08-28T09:00:01.378Z,43.63992592592593
2022-08-28T09:05:01.367Z,29.24389417989418
2022-08-28T09:10:01.389Z,35.93585185185185
2022-08-28T09:15:01.557Z,33.58014814814815
2022-08-28T09:20:01.338Z,42.457301587301586
2022-08-28T09:25:01.379Z,24.812402116402115
2022-08-28T09:30:02.639Z,39.2882962962963
2022-08-28T09:35:01.386Z,58.210952380952385
2022-08-28T09:40:01.614Z,36.48710052910053
2022-08-28T09:45:01.405Z,35.68980952380952
2022-08-28T09:50:01.444Z,24.186962962962962
2022-08-28T09:55:01.366Z,60.36893121693122
2022-08-28T10:00:01.388Z,77.50092063492065
2022-08-28T10:05:01.546Z,43.412751322751326
2022-08-28T10:10:01.430Z,28.698391534391536
2022-08-28T10:15:01.425Z,40.960190476190476
2022-08-28T10:20:01.454Z,45.43019047619048
2022-08-28T10:25:01.476Z,22.44819047619048
2022-08-28T10:30:06.025Z,21.086095238095236
2022-08-28T10:35:01.475Z,14.104349206349207
2022-08-28T10:40:01.558Z,11.935322751322751
2022-08-28T10:45:01.432Z,11.830708994708994
2022-08-28T10:50:01.489Z,22.74918518518519
2022-08-28T10:55:01.615Z,21.07614814814815
2022-08-28T11:00:01.493Z,28.13437037037037
2022-08-28T11:05:01.573Z,26.97073015873016
2022-08-28T11:10:01.461Z,14.320349206349208
2022-08-28T11:15:01.602Z,10.046497354497355
2022-08-28T11:20:01.499Z,33.272708994709
2022-08-28T11:25:04.520Z,50.30273015873016
2022-08-28T11:30:01.681Z,63.682550264550265
2022-08-28T11:35:01.513Z,66.71625396825397
2022-08-28T11:40:01.622Z,40.79822222222222
2022-08-28T11:45:01.530Z,52.56043386243386
2022-08-28T11:50:01.538Z,71.78792592592592
2022-08-28T11:55:01.683Z,72.76626455026455
2022-08-28T12:00:01.678Z,70.56010582010582
2022-08-28T12:05:01.568Z,79.37693121693121
2022-08-28T12:15:01.614Z,39.48968253968254
2022-08-28T12:20:01.772Z,88.14231746031747
2022-08-28T12:25:01.537Z,40.450243386243386
2022-08-28T12:30:01.738Z,34.560708994708996
2022-08-28T12:35:01.551Z,54.54792592592593
2022-08-28T12:40:01.626Z,55.33512169312169
2022-08-28T12:45:01.566Z,37.416222222222224
2022-08-28T12:50:01.629Z,32.383820105820114
2022-08-28T12:55:01.749Z,45.75100529100529
2022-08-28T13:00:01.522Z,40.82078306878307
2022-08-28T13:05:01.637Z,48.081873015873015
2022-08-28T13:10:01.538Z,50.85318518518519
2022-08-28T13:15:01.625Z,59.140634920634916
2022-08-28T13:20:01.545Z,39.676105820105825
2022-08-28T13:25:01.579Z,42.93721693121693
2022-08-28T13:30:01.811Z,53.09112169312169
2022-08-28T13:35:01.588Z,64.94034920634921
2022-08-28T13:40:04.376Z,71.15412698412699
2022-08-28T13:45:01.636Z,69.58919576719576
2022-08-28T13:50:01.630Z,68.85335449735449
2022-08-28T13:55:01.619Z,71.86719576719577
2022-08-28T14:00:01.600Z,66.69760846560845
2022-08-28T14:05:01.768Z,45.549629629629635
2022-08-28T14:10:01.607Z,24.690486772486775
2022-08-28T14:15:01.851Z,60.42475132275133
2022-08-28T14:20:01.615Z,31.31684656084656
2022-08-28T14:25:01.615Z,47.49027513227514
2022-08-28T14:30:01.714Z,31.9404126984127
2022-08-28T14:35:01.636Z,16.11288888888889
2022-08-28T14:40:01.896Z,55.84904761904762
2022-08-28T14:45:01.702Z,55.73002116402116
2022-08-28T14:50:01.918Z,18.955417989417988
2022-08-28T14:55:01.661Z,14.297619047619047
2022-08-28T15:00:01.628Z,48.993830687830695
2022-08-28T15:05:01.659Z,52.53828571428571
2022-08-28T15:10:01.688Z,38.36936507936508
2022-08-28T15:15:01.682Z,4.248275132275133
2022-08-28T15:20:01.816Z,4.309460317460317
2022-08-28T15:25:01.907Z,7.798751322751323
2022-08-28T15:30:01.968Z,15.03004232804233
2022-08-28T15:35:01.694Z,25.135724867724868
2022-08-28T15:40:01.703Z,28.13658201058201
2022-08-28T15:45:01.742Z,30.58586243386243
2022-08-28T15:50:02.043Z,17.176857142857145
2022-08-28T15:55:01.732Z,34.928010582010586
2022-08-28T16:00:01.928Z,11.269777777777778
2022-08-28T16:05:01.830Z,4.911058201058202
2022-08-28T16:10:01.732Z,0.5799047619047619
2022-08-28T16:15:01.738Z,1.250899470899471
2022-08-28T16:20:01.716Z,5.1432698412698405
2022-08-28T16:25:01.941Z,19.786582010582013
2022-08-28T16:30:01.749Z,14.867851851851851
2022-08-28T16:35:01.862Z,15.5784126984127
2022-08-28T16:40:01.864Z,4.1251428571428574
2022-08-28T16:45:01.859Z,2.6839999999999997
2022-08-28T16:50:01.758Z,2.0187301587301585
2022-08-28T16:55:01.776Z,1.2775978835978836
2022-08-28T17:00:01.908Z,1.0052804232804233
2022-08-28T17:05:01.812Z,0.3411005291005291
2022-08-28T17:10:01.773Z,0.14247619047619048
2022-08-28T17:15:01.782Z,0.43312169312169313
2022-08-28T17:20:02.417Z,0.42906878306878315
2022-08-28T17:25:01.951Z,0
2022-08-28T17:30:01.845Z,0
2022-08-28T17:35:01.804Z,0
2022-08-28T17:40:01.832Z,0.16684656084656085
2022-08-28T17:45:01.845Z,0.3974391534391534
2022-08-28T17:50:02.010Z,0.28984126984126984
2022-08-28T17:55:01.803Z,0.2251216931216931
2022-08-28T18:00:01.908Z,0.09230687830687832
2022-08-28T18:05:01.878Z,0
2022-08-28T18:10:01.869Z,0
2022-08-28T18:15:01.819Z,0
2022-08-28T18:20:01.847Z,0
2022-08-28T18:25:01.992Z,0
2022-08-28T18:30:01.833Z,0
2022-08-28T18:35:01.833Z,0
2022-08-28T18:40:01.918Z,0
2022-08-28T18:45:01.873Z,0
2022-08-28T18:50:02.982Z,0
2022-08-28T18:55:01.895Z,0
2022-08-28T19:00:01.849Z,0
2022-08-28T19:05:01.840Z,0
2022-08-28T19:10:01.855Z,0
2022-08-28T19:15:02.009Z,0
2022-08-28T19:20:01.868Z,0
2022-08-28T19:25:01.918Z,0
2022-08-28T19:30:01.884Z,0
2022-08-28T19:35:01.948Z,0
2022-08-28T19:40:02.184Z,0
2022-08-28T19:45:01.946Z,0
2022-08-28T19:50:01.926Z,0
2022-08-28T19:55:01.892Z,0
2022-08-28T20:00:02.108Z,0
2022-08-28T20:05:02.162Z,0
2022-08-28T20:10:01.943Z,0
2022-08-28T20:15:03.571Z,0
2022-08-28T20:20:03.387Z,0
2022-08-28T20:25:01.933Z,0
2022-08-28T20:30:04.743Z,0
2022-08-28T20:35:02.006Z,0
2022-08-28T20:40:04.481Z,0
2022-08-28T20:45:01.931Z,0
2022-08-28T20:50:01.930Z,0
2022-08-28T20:55:02.132Z,0
2022-08-28T21:00:05.391Z,0
2022-08-28T21:05:02.186Z,0
2022-08-28T21:10:04.705Z,0
2022-08-28T21:15:02.002Z,0
2022-08-28T21:20:02.825Z,0
2022-08-28T21:25:01.964Z,0
2022-08-28T21:30:02.247Z,0
2022-08-28T21:35:01.997Z,0
2022-08-28T21:40:02.389Z,0
2022-08-28T21:45:02.047Z,0
2022-08-28T21:50:02.089Z,0
2022-08-28T21:55:02.167Z,0
2022-08-28T22:00:02.113Z,0
2022-08-28T22:05:02.025Z,0
2022-08-28T22:10:02.027Z,0
2022-08-28T22:15:02.246Z,0
2022-08-28T22:20:02.399Z,0
2022-08-28T22:25:02.120Z,0
2022-08-28T22:30:02.153Z,0
2022-08-28T22:35:02.056Z,0
2022-08-28T22:40:02.294Z,0
2022-08-28T22:45:02.056Z,0
2022-08-28T22:50:02.120Z,0
2022-08-28T22:55:02.211Z,0
2022-08-28T23:00:02.330Z,0
2022-08-28T23:05:02.240Z,0
2022-08-28T23:10:02.285Z,0
2022-08-28T23:15:02.099Z,0
2022-08-28T23:20:02.401Z,0
2022-08-28T23:25:02.066Z,0
2022-08-28T23:30:02.102Z,0
2022-08-28T23:35:02.085Z,0
2022-08-28T23:40:02.144Z,0
2022-08-28T23:45:02.189Z,0
2022-08-28T23:50:02.109Z,0
2022-08-28T23:55:02.146Z,0
